Time;durP1;ratioP1;P1;durP2;ratioP2;P2;SDS_P1;SDS_P2;PMS_P1;PMS_P2;Temp;Humidity;BMP_temperature;BMP_pressure;BME280_temperature;BME280_humidity;BME280_pressure;Samples;Min_cycle;Max_cycle;Signal;HPM_P1;HPM_P2
2022/12/07 00:01:07;;;;;;;45.70;24.75;;;3.20;99.90;;;;;;5108436;28;20035;-46
2022/12/07 00:03:34;;;;;;;43.42;23.23;;;3.20;99.90;;;;;;5108890;28;20035;-45
2022/12/07 00:06:00;;;;;;;41.67;23.20;;;3.20;99.90;;;;;;5096987;28;20127;-47
2022/12/07 00:08:26;;;;;;;43.15;23.92;;;3.20;99.90;;;;;;5088460;28;20028;-48
2022/12/07 00:10:51;;;;;;;47.42;25.08;;;3.20;99.90;;;;;;5087896;28;20437;-47
2022/12/07 00:13:17;;;;;;;45.83;25.25;;;3.20;99.90;;;;;;5088239;28;20020;-45
2022/12/07 00:15:43;;;;;;;46.05;22.42;;;3.20;99.90;;;;;;5088257;28;20122;-46
2022/12/07 00:18:08;;;;;;;43.92;23.42;;;3.20;99.90;;;;;;5088568;28;20030;-45
2022/12/07 00:20:33;;;;;;;44.70;23.25;;;3.30;99.90;;;;;;5085416;28;20043;-46
2022/12/07 00:22:59;;;;;;;41.08;23.13;;;3.30;99.90;;;;;;5081378;28;20503;-47
2022/12/07 00:25:25;;;;;;;38.80;22.95;;;3.30;99.90;;;;;;5095468;28;20025;-48
2022/12/07 00:27:52;;;;;;;42.45;23.50;;;3.40;99.90;;;;;;5085006;28;20028;-45
2022/12/07 00:30:17;;;;;;;39.88;23.65;;;3.40;99.90;;;;;;5090772;28;20024;-46
2022/12/07 00:32:43;;;;;;;43.47;24.02;;;3.40;99.90;;;;;;5092284;28;20021;-45
2022/12/07 00:35:08;;;;;;;45.80;24.33;;;3.40;99.90;;;;;;5089709;28;20031;-45
2022/12/07 00:37:34;;;;;;;44.28;24.23;;;3.40;99.90;;;;;;5100194;28;20032;-46
2022/12/07 00:40:00;;;;;;;39.72;23.15;;;3.40;99.90;;;;;;5091705;28;20024;-45
2022/12/07 00:42:29;;;;;;;41.15;23.50;;;3.40;99.90;;;;;;5091998;28;20099;-46
2022/12/07 00:44:57;;;;;;;44.38;24.95;;;3.40;99.90;;;;;;5091732;28;20028;-45
2022/12/07 00:47:25;;;;;;;42.97;24.10;;;3.40;99.90;;;;;;5091735;28;20024;-45
2022/12/07 00:49:51;;;;;;;43.92;24.10;;;3.50;99.90;;;;;;5091453;28;20024;-45
2022/12/07 00:52:19;;;;;;;43.78;24.58;;;3.50;99.90;;;;;;5091359;28;20101;-48
2022/12/07 00:54:44;;;;;;;43.75;23.45;;;3.50;99.90;;;;;;5092002;28;20518;-45
2022/12/07 00:57:10;;;;;;;47.65;23.70;;;3.50;99.90;;;;;;5091797;28;20031;-47
2022/12/07 00:59:36;;;;;;;42.85;25.08;;;3.50;99.90;;;;;;5091448;28;20035;-45
2022/12/07 01:02:02;;;;;;;47.15;25.08;;;3.60;99.90;;;;;;5092034;28;20106;-47
2022/12/07 01:04:29;;;;;;;47.80;24.83;;;3.50;99.90;;;;;;5092338;28;20141;-46
2022/12/07 01:06:54;;;;;;;46.22;24.63;;;3.50;99.90;;;;;;5090715;28;20035;-46
2022/12/07 01:09:20;;;;;;;48.00;27.00;;;3.50;99.90;;;;;;5090814;28;20020;-46
2022/12/07 01:11:45;;;;;;;55.47;28.00;;;3.60;99.90;;;;;;5091260;28;20020;-45
2022/12/07 01:14:11;;;;;;;51.88;27.17;;;3.60;99.90;;;;;;5091165;28;20158;-46
2022/12/07 01:16:39;;;;;;;49.95;27.05;;;3.60;99.90;;;;;;5089776;28;20024;-47
2022/12/07 01:19:04;;;;;;;51.08;27.17;;;3.60;99.90;;;;;;5091072;28;20026;-45
2022/12/07 01:21:35;;;;;;;60.05;28.27;;;3.60;99.90;;;;;;5088780;28;20046;-45
2022/12/07 01:24:06;;;;;;;57.65;29.00;;;3.60;99.90;;;;;;5088513;28;20099;-47
2022/12/07 01:26:31;;;;;;;62.50;30.40;;;3.60;99.90;;;;;;5090595;28;20385;-45
2022/12/07 01:28:58;;;;;;;67.97;30.85;;;3.50;99.90;;;;;;5086859;28;20032;-48
2022/12/07 01:31:29;;;;;;;67.20;32.10;;;3.50;99.90;;;;;;5089481;28;20020;-45
2022/12/07 01:33:57;;;;;;;58.08;30.45;;;3.50;99.90;;;;;;5083633;28;20032;-47
2022/12/07 01:36:47;;;;;;;64.15;31.58;;;3.60;99.90;;;;;;5090421;28;20054;-46
2022/12/07 01:39:12;;;;;;;67.78;31.85;;;3.60;99.90;;;;;;5090109;28;20513;-46
2022/12/07 01:41:40;;;;;;;65.38;31.95;;;3.60;99.90;;;;;;5088231;28;20062;-45
2022/12/07 01:44:13;;;;;;;67.43;33.47;;;3.70;99.90;;;;;;5090568;28;20028;-47
2022/12/07 01:46:40;;;;;;;74.70;33.38;;;3.60;99.90;;;;;;5089381;28;20481;-47
2022/12/07 01:49:11;;;;;;;77.63;33.90;;;3.70;99.90;;;;;;5090030;28;20324;-46
2022/12/07 01:51:40;;;;;;;68.53;32.70;;;3.70;99.90;;;;;;5090417;28;20020;-52
2022/12/07 01:54:05;;;;;;;81.03;33.90;;;3.60;99.90;;;;;;5090496;28;20027;-48
2022/12/07 01:56:32;;;;;;;74.13;33.90;;;3.60;99.90;;;;;;5090183;28;20528;-46
2022/12/07 01:59:00;;;;;;;68.18;32.67;;;3.60;99.90;;;;;;5089055;28;20078;-46
2022/12/07 02:01:25;;;;;;;62.85;30.75;;;3.70;99.90;;;;;;5089984;28;20016;-46
2022/12/07 02:03:52;;;;;;;68.72;31.52;;;3.70;99.90;;;;;;5089932;28;20066;-46
2022/12/07 02:06:22;;;;;;;66.85;32.97;;;3.70;99.90;;;;;;5089773;28;20028;-46
2022/12/07 02:08:48;;;;;;;74.93;34.22;;;3.70;99.90;;;;;;5090471;28;20373;-46
2022/12/07 02:11:14;;;;;;;63.03;30.63;;;3.70;99.90;;;;;;5089641;28;20035;-46
2022/12/07 02:13:42;;;;;;;66.93;30.77;;;3.70;99.90;;;;;;5090124;28;20032;-46
2022/12/07 02:16:32;;;;;;;71.50;33.53;;;3.80;99.90;;;;;;5090277;28;20105;-46
2022/12/07 02:19:18;;;;;;;67.93;33.45;;;3.80;99.90;;;;;;5089769;28;20020;-47
2022/12/07 02:21:59;;;;;;;70.80;32.60;;;3.80;99.90;;;;;;5084857;28;20099;-47
2022/12/07 02:24:52;;;;;;;68.25;33.08;;;3.80;99.90;;;;;;5089605;28;20023;-46
2022/12/07 02:27:52;;;;;;;64.07;32.17;;;3.80;99.90;;;;;;5080239;28;20123;-47
2022/12/07 02:30:20;;;;;;;67.95;31.23;;;3.80;99.90;;;;;;5089255;28;20070;-47
2022/12/07 02:32:58;;;;;;;65.20;31.42;;;3.90;99.90;;;;;;5089589;28;20024;-46
2022/12/07 02:35:51;;;;;;;66.85;31.65;;;3.90;99.90;;;;;;5089626;28;20012;-47
2022/12/07 02:38:43;;;;;;;77.45;35.78;;;3.90;99.90;;;;;;5081812;28;20035;-47
2022/12/07 02:41:15;;;;;;;69.00;33.88;;;3.90;99.90;;;;;;5088966;28;20032;-48
2022/12/07 02:43:46;;;;;;;77.05;36.58;;;3.90;99.90;;;;;;5089017;28;20032;-46
2022/12/07 02:46:17;;;;;;;;;;;3.90;99.90;;;;;;5089957;28;20078;-46
2022/12/07 02:48:47;;;;;;;72.80;34.92;;;3.90;99.90;;;;;;5089602;28;19915;-50
2022/12/07 02:51:12;;;;;;;80.65;36.35;;;3.90;99.90;;;;;;5088735;28;20027;-47
2022/12/07 02:53:41;;;;;;;69.38;34.53;;;3.90;99.90;;;;;;5089201;28;20017;-46
2022/12/07 02:56:37;;;;;;;82.60;34.78;;;4.00;99.90;;;;;;5089244;28;20530;-49
2022/12/07 02:59:40;;;;;;;65.32;33.70;;;4.00;99.90;;;;;;5099090;28;20073;-46
2022/12/07 03:02:27;;;;;;;66.38;34.28;;;4.00;99.90;;;;;;5108304;28;20064;-48
2022/12/07 03:05:03;;;;;;;67.72;35.75;;;4.00;99.90;;;;;;5087002;28;20028;-47
2022/12/07 03:08:03;;;;;;;70.05;34.70;;;4.00;99.90;;;;;;5088671;28;20016;-47
2022/12/07 03:10:54;;;;;;;67.65;32.83;;;4.00;99.90;;;;;;5067141;28;20090;-49
2022/12/07 03:13:48;;;;;;;64.53;32.58;;;4.00;99.90;;;;;;5067451;28;20431;-49
2022/12/07 03:16:21;;;;;;;65.13;32.17;;;4.10;99.90;;;;;;5068942;28;20469;-46
2022/12/07 03:19:00;;;;;;;62.80;32.70;;;4.10;99.90;;;;;;5068994;28;20525;-46
2022/12/07 03:21:31;;;;;;;68.22;30.92;;;4.10;99.90;;;;;;5068209;28;20347;-46
2022/12/07 03:24:00;;;;;;;60.65;30.35;;;4.10;99.90;;;;;;5077323;28;20020;-46
2022/12/07 03:26:32;;;;;;;60.42;30.15;;;4.10;99.90;;;;;;5087069;28;20024;-46
2022/12/07 03:29:07;;;;;;;65.32;32.42;;;4.10;99.90;;;;;;5088743;28;20506;-47
2022/12/07 03:31:40;;;;;;;67.25;34.38;;;4.10;99.90;;;;;;5087390;28;20035;-46
2022/12/07 03:34:20;;;;;;;59.55;30.58;;;4.10;99.90;;;;;;5071538;28;20020;-49
2022/12/07 03:36:55;;;;;;;61.60;31.17;;;4.10;99.90;;;;;;5088594;28;20107;-46
2022/12/07 03:39:52;;;;;;;59.95;29.83;;;4.10;99.90;;;;;;5066448;28;20040;-46
2022/12/07 03:42:21;;;;;;;56.47;28.63;;;4.20;99.90;;;;;;5066859;28;20037;-48
2022/12/07 03:44:48;;;;;;;48.53;27.73;;;4.20;99.90;;;;;;5068575;28;20032;-46
2022/12/07 03:47:42;;;;;;;53.25;27.75;;;4.20;99.90;;;;;;5068655;28;20035;-49
2022/12/07 03:50:22;;;;;;;54.65;26.67;;;4.20;99.90;;;;;;5068077;28;20023;-47
2022/12/07 03:53:07;;;;;;;45.58;23.83;;;4.30;99.90;;;;;;5068408;28;20112;-47
2022/12/07 03:55:37;;;;;;;50.28;24.02;;;4.30;99.90;;;;;;5091315;28;20055;-47
2022/12/07 03:58:09;;;;;;;48.45;23.08;;;4.30;99.90;;;;;;5086355;28;20031;-47
2022/12/07 04:00:35;;;;;;;39.67;20.95;;;4.30;99.90;;;;;;5088238;28;20480;-47
2022/12/07 04:03:00;;;;;;;40.60;21.30;;;4.40;99.90;;;;;;5088704;28;20111;-46
2022/12/07 04:05:29;;;;;;;35.42;20.60;;;4.40;99.90;;;;;;5083876;28;20032;-47
2022/12/07 04:07:54;;;;;;;38.60;20.83;;;4.40;99.90;;;;;;5085265;28;20266;-42
2022/12/07 04:10:23;;;;;;;35.20;19.17;;;4.40;99.90;;;;;;5080383;28;20072;-42
2022/12/07 04:12:49;;;;;;;35.88;19.65;;;4.40;99.90;;;;;;5080615;28;20024;-42
2022/12/07 04:15:15;;;;;;;36.78;18.85;;;4.40;99.90;;;;;;5081724;28;20487;-42
2022/12/07 04:17:41;;;;;;;33.38;18.23;;;4.40;99.90;;;;;;5080802;28;20524;-42
2022/12/07 04:20:08;;;;;;;36.92;18.00;;;4.40;99.90;;;;;;5081755;28;20103;-42
2022/12/07 04:22:34;;;;;;;34.88;17.75;;;4.40;99.90;;;;;;5079127;28;20040;-42
2022/12/07 04:24:59;;;;;;;35.70;17.88;;;4.40;99.90;;;;;;5089906;28;20385;-42
2022/12/07 04:27:25;;;;;;;39.90;16.45;;;4.40;99.90;;;;;;5084187;28;20028;-43
2022/12/07 04:29:50;;;;;;;36.40;16.00;;;4.40;99.90;;;;;;5082170;28;20017;-42
2022/12/07 04:32:16;;;;;;;31.88;16.92;;;4.40;99.90;;;;;;5085188;28;20024;-42
2022/12/07 04:34:42;;;;;;;25.98;15.43;;;4.40;99.90;;;;;;5081918;28;20503;-42
2022/12/07 04:37:08;;;;;;;28.63;14.43;;;4.40;99.90;;;;;;5086499;28;20020;-42
2022/12/07 04:39:34;;;;;;;25.13;13.60;;;4.40;99.90;;;;;;5081136;28;20024;-42
2022/12/07 04:42:01;;;;;;;33.22;16.10;;;4.40;99.90;;;;;;5081886;28;20017;-42
2022/12/07 04:44:27;;;;;;;27.08;13.95;;;4.40;99.90;;;;;;5080468;28;20131;-42
2022/12/07 04:46:54;;;;;;;29.13;13.55;;;4.40;99.90;;;;;;5082382;28;20024;-41
2022/12/07 04:49:20;;;;;;;23.20;13.85;;;4.40;99.90;;;;;;5081259;28;20233;-42
2022/12/07 04:51:47;;;;;;;28.02;15.48;;;4.40;99.90;;;;;;5080449;28;20036;-43
2022/12/07 04:54:13;;;;;;;27.67;15.65;;;4.30;99.90;;;;;;5079972;28;20105;-42
2022/12/07 04:56:39;;;;;;;26.35;13.85;;;4.40;99.90;;;;;;5081279;28;20272;-42
2022/12/07 04:59:06;;;;;;;32.90;15.68;;;4.40;99.90;;;;;;5081927;28;20417;-42
2022/12/07 05:01:32;;;;;;;28.75;14.05;;;4.40;99.90;;;;;;5079335;28;20032;-46
2022/12/07 05:03:58;;;;;;;28.80;13.82;;;4.40;99.90;;;;;;5080518;28;20032;-47
2022/12/07 05:06:23;;;;;;;29.10;12.60;;;4.40;99.90;;;;;;5109375;28;20030;-47
2022/12/07 05:08:49;;;;;;;27.38;12.50;;;4.40;99.90;;;;;;5087349;28;20093;-46
2022/12/07 05:13:59;;;;;;;27.05;11.52;;;4.40;99.90;;;;;;5092999;28;20077;-55
2022/12/07 05:16:25;;;;;;;23.20;10.27;;;4.40;99.90;;;;;;5092977;28;20028;-46
2022/12/07 05:18:51;;;;;;;26.90;12.07;;;4.40;99.90;;;;;;5091531;28;20039;-46
2022/12/07 05:21:17;;;;;;;21.95;10.88;;;4.40;99.90;;;;;;5092570;28;20020;-49
2022/12/07 05:23:42;;;;;;;19.88;10.75;;;4.40;99.90;;;;;;5089148;28;20028;-46
2022/12/07 05:26:08;;;;;;;21.13;10.70;;;4.40;99.90;;;;;;5092662;28;20477;-47
2022/12/07 05:28:34;;;;;;;23.30;11.55;;;4.30;99.90;;;;;;5092820;28;20578;-46
2022/12/07 05:30:59;;;;;;;20.15;11.63;;;4.30;99.90;;;;;;5092279;28;20731;-46
2022/12/07 05:33:25;;;;;;;21.13;11.27;;;4.30;99.90;;;;;;5089428;28;20024;-47
2022/12/07 05:35:51;;;;;;;22.70;11.85;;;4.30;99.90;;;;;;5088895;28;20428;-46
2022/12/07 05:38:16;;;;;;;19.73;11.32;;;4.20;99.90;;;;;;5091887;28;20032;-48
2022/12/07 05:40:42;;;;;;;19.50;10.90;;;4.20;99.90;;;;;;5091833;28;20028;-49
2022/12/07 05:43:08;;;;;;;19.08;11.38;;;4.20;99.90;;;;;;5090737;28;20027;-47
2022/12/07 05:45:34;;;;;;;27.30;11.68;;;4.10;99.90;;;;;;5092273;28;20034;-47
2022/12/07 05:47:59;;;;;;;19.58;11.55;;;4.20;99.90;;;;;;5091931;28;20448;-46
2022/12/07 05:50:25;;;;;;;23.10;12.35;;;4.20;99.90;;;;;;5091216;28;20024;-48
2022/12/07 05:52:51;;;;;;;23.33;11.13;;;4.20;99.90;;;;;;5088035;28;20099;-47
2022/12/07 05:55:16;;;;;;;29.05;12.18;;;4.20;99.90;;;;;;5091645;28;20128;-47
2022/12/07 05:59:22;;;;;;;25.40;11.00;;;4.20;99.90;;;;;;5090666;28;20028;-50
2022/12/07 06:00:31;;;;;;;27.33;11.32;;;4.10;99.90;;;;;;5082673;28;20020;-46
2022/12/07 06:02:57;;;;;;;23.02;11.80;;;4.10;99.90;;;;;;5098630;28;20030;-50
2022/12/07 06:05:23;;;;;;;23.17;11.70;;;4.10;99.90;;;;;;5104325;28;20473;-49
2022/12/07 06:07:49;;;;;;;19.60;11.63;;;4.10;99.90;;;;;;5091687;28;20073;-50
2022/12/07 06:10:15;;;;;;;20.55;12.65;;;4.10;99.90;;;;;;5089742;28;20020;-47
2022/12/07 06:12:42;;;;;;;21.17;11.10;;;4.00;99.90;;;;;;5091872;28;20031;-50
2022/12/07 06:15:09;;;;;;;18.80;11.93;;;4.10;99.90;;;;;;5091781;28;20070;-47
2022/12/07 06:17:35;;;;;;;27.30;12.90;;;4.10;99.90;;;;;;5091477;28;20024;-50
2022/12/07 06:20:01;;;;;;;25.40;12.45;;;4.00;99.90;;;;;;5086589;28;20134;-47
2022/12/07 06:22:27;;;;;;;21.95;11.07;;;4.10;99.90;;;;;;5090259;28;20032;-47
2022/12/07 06:24:52;;;;;;;19.50;11.18;;;4.00;99.90;;;;;;5088734;28;20111;-47
2022/12/07 06:27:18;;;;;;;25.20;12.32;;;4.00;99.90;;;;;;5088916;28;20746;-50
2022/12/07 06:29:44;;;;;;;26.98;11.88;;;4.00;99.90;;;;;;5084257;28;20111;-47
2022/12/07 06:32:11;;;;;;;20.98;12.00;;;3.90;99.90;;;;;;5083222;28;20020;-46
2022/12/07 06:34:36;;;;;;;28.17;12.05;;;3.90;99.90;;;;;;5077742;28;20055;-49
2022/12/07 06:37:02;;;;;;;21.23;11.68;;;3.90;99.90;;;;;;5083637;28;20055;-45
2022/12/07 06:39:29;;;;;;;30.13;12.85;;;3.90;99.90;;;;;;5082007;28;20023;-48
2022/12/07 06:41:56;;;;;;;20.08;11.13;;;3.90;99.90;;;;;;5083390;28;20023;-46
2022/12/07 06:44:23;;;;;;;23.98;12.43;;;3.90;99.90;;;;;;5079046;28;20186;-45
2022/12/07 06:46:49;;;;;;;21.80;12.20;;;3.90;99.90;;;;;;5072010;28;20150;-45
2022/12/07 06:49:15;;;;;;;20.90;11.50;;;3.80;99.90;;;;;;5080497;28;20081;-45
2022/12/07 06:51:42;;;;;;;18.33;11.90;;;3.90;99.90;;;;;;5087720;28;20506;-46
2022/12/07 06:54:09;;;;;;;43.08;10.82;;;3.90;99.90;;;;;;5088896;28;20031;-45
2022/12/07 06:56:35;;;;;;;20.10;10.70;;;3.90;99.90;;;;;;5089252;28;20024;-48
2022/12/07 06:59:02;;;;;;;23.83;10.60;;;3.90;99.90;;;;;;5097290;28;20177;-47
2022/12/07 07:01:27;;;;;;;22.63;10.65;;;3.90;99.90;;;;;;5108149;28;20024;-45
2022/12/07 07:03:53;;;;;;;18.83;10.52;;;3.90;99.90;;;;;;5109915;28;20020;-45
2022/12/07 07:06:19;;;;;;;17.98;10.70;;;3.90;99.90;;;;;;5094787;28;20431;-46
2022/12/07 07:08:44;;;;;;;21.50;11.27;;;3.90;99.90;;;;;;5088588;28;20334;-47
2022/12/07 07:11:10;;;;;;;18.25;10.23;;;3.90;99.90;;;;;;5088560;28;20067;-46
2022/12/07 07:13:37;;;;;;;22.75;9.77;;;3.90;99.90;;;;;;5089022;28;20016;-46
2022/12/07 07:16:03;;;;;;;18.58;10.02;;;3.90;99.90;;;;;;5088923;28;20016;-46
2022/12/07 07:18:29;;;;;;;14.63;9.75;;;3.90;99.90;;;;;;5089010;28;20024;-46
2022/12/07 07:20:55;;;;;;;17.63;9.15;;;3.80;99.90;;;;;;5087260;28;20431;-45
2022/12/07 07:23:21;;;;;;;14.85;8.80;;;3.90;99.90;;;;;;5086892;28;20422;-46
2022/12/07 07:25:47;;;;;;;15.43;8.90;;;3.80;99.90;;;;;;5086945;28;20062;-46
2022/12/07 07:28:12;;;;;;;15.32;7.95;;;3.90;99.90;;;;;;5088662;28;20024;-46
2022/12/07 07:30:38;;;;;;;17.35;8.48;;;3.90;99.90;;;;;;5088336;28;20052;-46
2022/12/07 07:33:05;;;;;;;19.02;9.07;;;3.90;99.90;;;;;;5086049;28;20051;-45
2022/12/07 07:35:33;;;;;;;19.48;8.82;;;3.80;99.90;;;;;;5088718;28;20020;-46
2022/12/07 07:37:59;;;;;;;15.75;8.50;;;3.90;99.90;;;;;;5087222;28;20073;-46
2022/12/07 07:40:26;;;;;;;16.67;8.30;;;3.80;99.90;;;;;;5089756;28;20020;-44
2022/12/07 07:42:52;;;;;;;17.08;9.68;;;3.80;99.90;;;;;;5091157;28;20241;-45
2022/12/07 07:45:20;;;;;;;14.23;8.85;;;3.80;99.90;;;;;;5087776;28;20078;-45
2022/12/07 07:47:46;;;;;;;16.77;8.35;;;3.80;99.90;;;;;;5087270;28;20048;-45
2022/12/07 07:50:12;;;;;;;14.57;7.75;;;3.80;99.90;;;;;;5110735;27;20023;-45
2022/12/07 07:52:37;;;;;;;17.88;8.43;;;3.80;99.90;;;;;;5108672;28;20023;-45
2022/12/07 07:55:03;;;;;;;16.45;8.75;;;3.80;99.90;;;;;;5090694;28;20024;-46
2022/12/07 07:57:29;;;;;;;13.73;8.52;;;3.80;99.90;;;;;;5091713;28;20546;-45
2022/12/07 07:59:54;;;;;;;13.95;7.82;;;3.80;99.90;;;;;;5089786;28;20028;-45
2022/12/07 08:02:21;;;;;;;15.95;8.32;;;3.80;99.90;;;;;;5091241;28;20044;-46
2022/12/07 08:04:47;;;;;;;17.27;8.90;;;3.80;99.90;;;;;;5083994;28;20271;-45
2022/12/07 08:07:15;;;;;;;11.00;7.60;;;3.80;99.90;;;;;;5092354;28;20024;-46
2022/12/07 08:09:41;;;;;;;15.32;8.48;;;3.80;99.90;;;;;;5092300;28;20370;-45
2022/12/07 08:12:07;;;;;;;12.85;7.28;;;3.80;99.90;;;;;;5093025;28;20383;-45
2022/12/07 08:14:33;;;;;;;13.27;8.10;;;3.80;99.90;;;;;;5087621;28;20095;-46
2022/12/07 08:16:59;;;;;;;14.65;8.50;;;3.90;99.90;;;;;;5093254;28;20468;-45
2022/12/07 08:19:25;;;;;;;12.60;8.30;;;3.90;99.90;;;;;;5091854;28;20046;-46
2022/12/07 08:21:51;;;;;;;12.38;7.97;;;4.00;99.90;;;;;;5092641;28;20028;-46
2022/12/07 08:24:16;;;;;;;17.50;9.02;;;4.00;99.90;;;;;;5086755;28;20520;-45
2022/12/07 08:26:42;;;;;;;20.40;10.15;;;4.00;99.90;;;;;;5092001;28;20362;-45
2022/12/07 08:29:08;;;;;;;13.77;9.00;;;4.00;99.90;;;;;;5091502;28;20028;-45
2022/12/07 08:31:34;;;;;;;16.55;10.00;;;4.00;99.90;;;;;;5092233;28;20020;-46
2022/12/07 08:33:59;;;;;;;14.40;8.82;;;4.00;99.90;;;;;;5092047;28;20111;-46
2022/12/07 08:36:25;;;;;;;20.25;9.75;;;4.00;99.90;;;;;;5093853;28;20023;-45
2022/12/07 08:38:50;;;;;;;24.92;10.15;;;4.00;99.90;;;;;;5091503;28;20028;-45
2022/12/07 08:41:16;;;;;;;16.75;9.38;;;4.00;99.90;;;;;;5091723;28;20060;-45
2022/12/07 08:43:41;;;;;;;19.17;9.02;;;4.00;99.90;;;;;;5091760;28;20071;-45
2022/12/07 08:46:18;;;;;;;14.85;9.23;;;4.10;99.90;;;;;;5092150;28;20288;-48
2022/12/07 08:48:53;;;;;;;15.88;8.75;;;4.00;99.90;;;;;;5091923;28;20111;-48
2022/12/07 08:51:20;;;;;;;16.92;8.25;;;4.10;99.90;;;;;;5091124;28;20024;-45
2022/12/07 08:53:46;;;;;;;14.65;8.65;;;4.10;99.90;;;;;;5086130;28;20107;-46
2022/12/07 08:56:12;;;;;;;14.77;8.27;;;4.10;99.90;;;;;;5102975;28;20111;-45
2022/12/07 08:58:38;;;;;;;15.82;7.85;;;4.10;99.90;;;;;;5112233;28;20027;-45
2022/12/07 09:01:04;;;;;;;13.70;7.88;;;4.20;99.90;;;;;;5111876;28;20114;-45
2022/12/07 09:03:30;;;;;;;16.30;8.45;;;4.20;99.90;;;;;;5111955;28;20107;-46
2022/12/07 09:05:57;;;;;;;13.73;7.72;;;4.20;99.90;;;;;;5100363;28;20025;-48
2022/12/07 09:08:29;;;;;;;18.48;9.00;;;4.20;99.90;;;;;;5090823;28;20115;-45
2022/12/07 09:10:54;;;;;;;11.55;7.93;;;4.20;99.90;;;;;;5091360;28;20024;-46
2022/12/07 09:13:20;;;;;;;13.88;7.55;;;4.30;99.90;;;;;;5091167;28;20075;-45
2022/12/07 09:15:45;;;;;;;14.25;8.27;;;4.40;99.90;;;;;;5091705;28;20492;-45
2022/12/07 09:18:11;;;;;;;15.13;7.45;;;4.40;99.90;;;;;;5089941;28;20024;-45
2022/12/07 09:20:36;;;;;;;15.88;8.23;;;4.40;99.90;;;;;;5090639;28;20432;-45
2022/12/07 09:23:02;;;;;;;11.50;7.20;;;4.40;99.90;;;;;;5089982;28;20020;-44
2022/12/07 09:25:27;;;;;;;10.73;6.85;;;4.40;99.90;;;;;;5084226;28;20149;-47
2022/12/07 09:27:57;;;;;;;10.80;7.15;;;4.40;99.90;;;;;;5090017;28;20024;-45
2022/12/07 09:30:23;;;;;;;14.25;7.95;;;4.40;99.90;;;;;;5072813;28;20027;-45
2022/12/07 09:32:48;;;;;;;13.73;7.65;;;4.40;99.90;;;;;;5070042;28;20382;-45
2022/12/07 09:35:14;;;;;;;12.23;7.68;;;4.50;99.90;;;;;;5080539;28;20393;-45
2022/12/07 09:37:40;;;;;;;13.85;7.57;;;4.40;99.90;;;;;;5089583;28;20438;-45
2022/12/07 09:40:06;;;;;;;13.90;7.68;;;4.50;99.90;;;;;;5089191;28;20327;-46
2022/12/07 09:42:39;;;;;;;15.40;7.10;;;4.50;99.90;;;;;;5087322;28;20097;-45
2022/12/07 09:45:07;;;;;;;13.30;7.07;;;4.50;99.90;;;;;;5077380;28;20240;-46
2022/12/07 09:47:33;;;;;;;12.55;7.53;;;4.50;99.90;;;;;;5081779;28;20032;-45
2022/12/07 09:50:04;;;;;;;13.02;7.45;;;4.50;99.90;;;;;;5085933;28;20016;-45
2022/12/07 09:52:30;;;;;;;14.45;6.90;;;4.50;99.90;;;;;;5079377;28;20025;-45
2022/12/07 09:54:56;;;;;;;10.60;5.95;;;4.50;99.90;;;;;;5079317;28;20035;-45
2022/12/07 09:57:28;;;;;;;11.60;5.25;;;4.60;99.90;;;;;;5076025;28;20054;-45
2022/12/07 10:00:03;;;;;;;7.50;5.57;;;4.50;99.90;;;;;;5077069;28;20384;-45
2022/12/07 10:02:42;;;;;;;9.45;4.72;;;4.60;99.90;;;;;;5078151;28;20052;-45
2022/12/07 10:05:18;;;;;;;8.05;4.60;;;4.80;99.90;;;;;;5083602;28;20500;-46
2022/12/07 10:07:44;;;;;;;7.20;4.38;;;4.80;99.90;;;;;;5088540;28;20016;-46
2022/12/07 10:10:17;;;;;;;8.15;4.75;;;4.80;99.90;;;;;;5088200;28;20020;-45
2022/12/07 10:13:05;;;;;;;8.23;4.10;;;4.80;99.90;;;;;;5096045;28;20145;-44
2022/12/07 10:15:55;;;;;;;7.47;3.83;;;4.80;99.90;;;;;;5068523;28;20025;-47
2022/12/07 10:18:26;;;;;;;7.63;3.85;;;4.70;99.90;;;;;;5085644;28;20020;-46
2022/12/07 10:21:20;;;;;;;7.05;4.70;;;4.60;99.90;;;;;;5088519;28;20379;-44
2022/12/07 10:24:14;;;;;;;9.70;5.22;;;4.60;99.90;;;;;;5081411;28;20365;-46
2022/12/07 10:26:52;;;;;;;9.45;4.63;;;4.50;99.90;;;;;;5099427;28;20543;-45
2022/12/07 10:29:35;;;;;;;13.23;5.35;;;4.50;99.90;;;;;;5088111;28;20038;-45
2022/12/07 10:32:06;;;;;;;6.93;4.70;;;4.50;99.90;;;;;;5079470;28;20086;-46
2022/12/07 10:34:36;;;;;;;11.73;5.15;;;4.50;99.90;;;;;;5078576;28;20071;-45
2022/12/07 10:37:17;;;;;;;10.15;5.03;;;4.50;99.90;;;;;;5083346;28;20025;-46
2022/12/07 10:39:53;;;;;;;8.70;5.20;;;4.50;99.90;;;;;;5077526;28;20107;-47
2022/12/07 10:42:30;;;;;;;11.00;5.85;;;4.50;99.90;;;;;;5081450;28;20078;-45
2022/12/07 10:45:18;;;;;;;8.68;5.53;;;4.50;99.90;;;;;;5076095;28;20024;-45
2022/12/07 10:48:07;;;;;;;9.38;4.90;;;4.60;99.90;;;;;;5078546;28;20557;-45
2022/12/07 10:51:13;;;;;;;10.88;5.28;;;4.60;99.90;;;;;;5076841;28;20129;-45
2022/12/07 10:54:00;;;;;;;12.35;5.00;;;4.60;99.90;;;;;;5079216;28;20021;-45
2022/12/07 10:56:51;;;;;;;10.82;4.95;;;4.70;99.90;;;;;;5085678;28;20024;-46
2022/12/07 10:59:36;;;;;;;12.98;4.80;;;4.80;99.90;;;;;;5070102;28;20029;-45
2022/12/07 11:02:36;;;;;;;14.82;4.82;;;4.80;99.90;;;;;;5068164;28;20028;-48
2022/12/07 11:05:35;;;;;;;13.40;4.45;;;5.00;99.90;;;;;;5076832;28;20097;-45
2022/12/07 11:08:40;;;;;;;10.32;4.38;;;5.20;99.90;;;;;;5087622;28;20028;-45
2022/12/07 11:11:34;;;;;;;7.53;3.10;;;5.20;99.90;;;;;;5046346;28;20103;-45
2022/12/07 11:14:14;;;;;;;8.98;3.42;;;5.30;99.90;;;;;;5086582;28;20729;-44
2022/12/07 11:16:57;;;;;;;6.13;3.00;;;5.10;99.90;;;;;;5088013;28;20035;-44
2022/12/07 11:19:39;;;;;;;9.95;3.55;;;5.10;99.90;;;;;;5087765;28;20377;-47
2022/12/07 11:22:25;;;;;;;5.65;3.08;;;4.90;99.90;;;;;;5088124;28;20457;-44
2022/12/07 11:25:21;;;;;;;7.18;3.90;;;4.90;99.90;;;;;;5082055;28;20032;-44
2022/12/07 11:28:19;;;;;;;12.00;3.40;;;4.90;99.90;;;;;;5088054;28;20058;-45
2022/12/07 11:30:50;;;;;;;12.15;4.28;;;5.10;99.90;;;;;;5083990;28;20016;-45
2022/12/07 11:33:19;;;;;;;6.80;3.15;;;5.20;99.90;;;;;;5076437;28;20036;-46
2022/12/07 11:36:03;;;;;;;7.10;2.42;;;5.20;99.90;;;;;;5079602;28;20103;-45
2022/12/07 11:38:43;;;;;;;7.90;3.22;;;5.30;99.90;;;;;;5078150;28;20021;-45
2022/12/07 11:41:15;;;;;;;3.95;2.40;;;5.30;99.90;;;;;;5076964;28;20095;-45
2022/12/07 11:44:02;;;;;;;7.22;2.70;;;5.40;99.90;;;;;;5070125;28;20025;-45
2022/12/07 11:46:42;;;;;;;5.90;2.70;;;5.50;99.90;;;;;;5067441;28;20028;-46
2022/12/07 11:49:15;;;;;;;8.90;2.67;;;5.50;99.90;;;;;;5067273;28;20283;-45
2022/12/07 11:51:45;;;;;;;6.95;2.05;;;5.60;99.90;;;;;;5066163;28;20032;-47
2022/12/07 11:54:17;;;;;;;7.55;2.60;;;5.60;99.90;;;;;;5066440;28;20048;-47
2022/12/07 11:56:45;;;;;;;15.80;8.45;;;5.50;99.90;;;;;;5068124;28;20107;-46
2022/12/07 11:59:23;;;;;;;8.43;2.80;;;5.50;99.90;;;;;;5067745;28;20028;-45
2022/12/07 12:02:16;;;;;;;11.05;4.55;;;5.40;99.90;;;;;;5067969;28;20459;-44
2022/12/07 12:04:53;;;;;;;5.35;2.38;;;5.40;99.90;;;;;;5080832;28;20420;-45
2022/12/07 12:07:23;;;;;;;9.65;2.28;;;5.30;99.90;;;;;;5082813;28;20024;-44
2022/12/07 12:09:54;;;;;;;8.13;2.83;;;5.20;99.90;;;;;;5077758;28;20045;-44
2022/12/07 12:12:56;;;;;;;4.13;2.33;;;5.10;99.90;;;;;;5086940;28;20362;-44
2022/12/07 12:15:59;;;;;;;10.25;2.47;;;5.10;99.90;;;;;;5082346;28;20021;-47
2022/12/07 12:18:50;;;;;;;9.40;3.08;;;5.00;99.90;;;;;;5079066;28;20047;-45
2022/12/07 12:21:17;;;;;;;;;;;5.00;99.90;;;;;;5078183;28;20016;-45
2022/12/07 12:23:48;;;;;;;12.63;2.45;;;5.00;99.90;;;;;;5074588;28;19918;-46
2022/12/07 12:26:23;;;;;;;9.55;2.47;;;5.00;99.90;;;;;;5085576;28;20016;-46
2022/12/07 12:28:58;;;;;;;6.03;2.45;;;5.00;99.90;;;;;;5080835;28;20035;-46
2022/12/07 12:31:30;;;;;;;6.20;2.35;;;5.10;99.90;;;;;;5075898;28;20554;-45
2022/12/07 12:34:01;;;;;;;7.75;2.50;;;5.10;99.90;;;;;;5078733;28;20027;-42
2022/12/07 12:36:44;;;;;;;5.65;2.40;;;5.20;99.90;;;;;;5084562;28;20243;-42
2022/12/07 12:39:13;;;;;;;6.07;2.67;;;5.20;99.90;;;;;;5085183;28;20505;-41
2022/12/07 12:41:39;;;;;;;5.90;2.97;;;5.20;99.90;;;;;;5081520;28;20036;-42
2022/12/07 12:44:19;;;;;;;6.03;2.92;;;5.10;99.90;;;;;;5080336;28;20028;-42
2022/12/07 12:46:52;;;;;;;9.65;2.72;;;5.10;99.90;;;;;;5086182;28;20097;-41
2022/12/07 12:49:21;;;;;;;8.13;3.08;;;5.10;99.90;;;;;;5091389;28;20059;-43
2022/12/07 12:51:58;;;;;;;4.97;2.60;;;5.20;99.90;;;;;;5090376;28;20119;-42
2022/12/07 12:54:30;;;;;;;9.23;2.50;;;5.30;99.90;;;;;;5092699;28;20020;-43
2022/12/07 12:57:12;;;;;;;5.07;2.80;;;5.40;99.90;;;;;;5103577;28;20499;-42
2022/12/07 12:59:53;;;;;;;7.07;2.53;;;5.60;99.90;;;;;;5111602;28;20036;-42
2022/12/07 13:02:35;;;;;;;7.15;3.47;;;5.70;99.90;;;;;;5111725;28;20533;-42
2022/12/07 13:05:20;;;;;;;5.20;2.47;;;5.70;99.90;;;;;;5106807;28;20032;-43
2022/12/07 13:07:51;;;;;;;6.50;2.95;;;5.60;99.90;;;;;;5091186;28;20016;-43